createdAt,value
2024-03-02T00:01:47.820Z,13.19
2024-03-02T00:04:15.987Z,13.17
2024-03-02T00:06:43.883Z,13.12
2024-03-02T00:09:13.812Z,13.12
2024-03-02T00:11:41.938Z,13.12
2024-03-02T00:14:10.354Z,13.01
2024-03-02T00:16:38.368Z,12.97
2024-03-02T00:19:09.300Z,12.94
2024-03-02T00:21:37.512Z,12.84
2024-03-02T00:24:16.041Z,12.82
2024-03-02T00:26:46.598Z,12.72
2024-03-02T00:29:17.927Z,12.62
2024-03-02T00:31:45.869Z,12.61
2024-03-02T00:34:17.412Z,12.59
2024-03-02T00:36:45.524Z,12.60
2024-03-02T00:39:15.481Z,12.53
2024-03-02T00:41:44.589Z,12.55
2024-03-02T00:44:14.690Z,12.45
2024-03-02T00:46:45.028Z,12.38
2024-03-02T00:49:21.929Z,12.33
2024-03-02T00:51:51.902Z,12.25
2024-03-02T00:54:22.654Z,12.21
2024-03-02T00:56:50.689Z,12.32
2024-03-02T00:59:18.791Z,12.32
2024-03-02T01:01:47.340Z,12.24
2024-03-02T01:04:16.612Z,12.19
2024-03-02T01:06:44.762Z,12.17
2024-03-02T01:09:14.090Z,12.24
2024-03-02T01:11:42.399Z,12.30
2024-03-02T01:14:10.457Z,12.24
2024-03-02T01:16:38.500Z,12.09
2024-03-02T01:19:06.634Z,12.02
2024-03-02T01:21:36.269Z,11.98
2024-03-02T01:24:04.540Z,11.94
2024-03-02T01:26:33.585Z,11.91
2024-03-02T01:29:01.462Z,11.88
2024-03-02T01:31:29.428Z,11.89
2024-03-02T01:33:57.503Z,11.86
2024-03-02T01:36:25.794Z,11.84
2024-03-02T01:38:55.054Z,11.84
2024-03-02T01:41:23.334Z,11.90
2024-03-02T01:43:51.210Z,11.94
2024-03-02T01:46:19.150Z,11.99
2024-03-02T01:48:47.068Z,12.01
2024-03-02T01:51:15.088Z,11.98
2024-03-02T01:53:43.026Z,11.84
2024-03-02T01:56:12.248Z,11.76
2024-03-02T01:58:40.262Z,11.64
2024-03-02T02:01:08.464Z,11.60
2024-03-02T02:03:36.520Z,11.66
2024-03-02T02:06:04.894Z,11.57
2024-03-02T02:08:33.022Z,11.44
2024-03-02T02:11:01.056Z,11.36
2024-03-02T02:13:30.412Z,11.29
2024-03-02T02:16:06.767Z,11.27
2024-03-02T02:18:34.943Z,11.24
2024-03-02T02:21:02.896Z,11.23
2024-03-02T02:23:32.209Z,11.23
2024-03-02T02:26:00.090Z,11.30
2024-03-02T02:28:27.994Z,11.35
2024-03-02T02:30:58.063Z,11.34
2024-03-02T02:33:26.187Z,11.33
2024-03-02T02:35:54.284Z,11.33
2024-03-02T02:38:22.494Z,11.24
2024-03-02T02:40:51.711Z,11.03
2024-03-02T02:43:20.173Z,10.98
2024-03-02T02:45:48.121Z,10.90
2024-03-02T02:48:16.155Z,10.89
2024-03-02T02:50:44.340Z,10.93
2024-03-02T02:53:12.273Z,10.94
2024-03-02T02:55:41.876Z,10.99
2024-03-02T02:58:11.214Z,10.95
2024-03-02T03:00:39.273Z,10.92
2024-03-02T03:03:07.215Z,10.85
2024-03-02T03:05:35.077Z,10.91
2024-03-02T03:08:03.886Z,10.96
2024-03-02T03:10:31.900Z,11.11
2024-03-02T03:12:59.945Z,11.15
2024-03-02T03:15:29.550Z,11.32
2024-03-02T03:17:57.411Z,11.41
2024-03-02T03:20:26.000Z,11.46
2024-03-02T03:22:53.969Z,11.30
2024-03-02T03:25:21.848Z,11.34
2024-03-02T03:27:49.782Z,11.42
2024-03-02T03:30:17.798Z,11.38
2024-03-02T03:32:49.199Z,11.37
2024-03-02T03:35:17.189Z,11.33
2024-03-02T03:37:45.607Z,11.33
2024-03-02T03:40:15.469Z,11.25
2024-03-02T03:42:43.537Z,10.96
2024-03-02T03:45:12.189Z,10.85
2024-03-02T03:47:40.083Z,10.93
2024-03-02T03:50:10.288Z,10.97
2024-03-02T03:52:38.352Z,11.07
2024-03-02T03:55:07.539Z,11.17
2024-03-02T03:57:36.104Z,11.24
2024-03-02T04:00:05.250Z,11.27
2024-03-02T04:02:40.309Z,11.30
2024-03-02T04:05:12.132Z,11.33
2024-03-02T04:07:41.743Z,11.34
2024-03-02T04:10:10.750Z,11.36
2024-03-02T04:12:39.355Z,11.19
2024-03-02T04:15:07.987Z,11.31
2024-03-02T04:17:36.938Z,11.29
2024-03-02T04:20:06.684Z,11.25
2024-03-02T04:22:36.920Z,11.24
2024-03-02T04:25:08.428Z,11.29
2024-03-02T04:27:36.542Z,11.31
2024-03-02T04:30:06.938Z,11.32
2024-03-02T04:32:35.181Z,11.35
2024-03-02T04:35:03.159Z,11.37
2024-03-02T04:37:31.892Z,11.38
2024-03-02T04:40:01.260Z,11.40
2024-03-02T04:42:29.298Z,11.40
2024-03-02T04:44:57.234Z,11.36
2024-03-02T04:47:25.487Z,11.33
2024-03-02T04:49:53.487Z,11.28
2024-03-02T04:52:21.464Z,11.29
2024-03-02T04:55:03.373Z,11.31
2024-03-02T04:57:32.702Z,11.25
2024-03-02T05:00:01.402Z,11.10
2024-03-02T05:02:29.326Z,11.02
2024-03-02T05:04:57.225Z,10.96
2024-03-02T05:07:25.212Z,10.95
2024-03-02T05:09:53.151Z,10.87
2024-03-02T05:12:48.523Z,10.77
2024-03-02T05:15:20.962Z,10.69
2024-03-02T05:17:48.956Z,10.77
2024-03-02T05:20:18.101Z,10.74
2024-03-02T05:22:46.119Z,10.75
2024-03-02T05:25:14.123Z,10.94
2024-03-02T05:27:42.337Z,11.08
2024-03-02T05:30:11.859Z,11.04
2024-03-02T05:32:41.167Z,11.25
2024-03-02T05:35:09.923Z,11.21
2024-03-02T05:37:37.820Z,11.23
2024-03-02T05:40:07.080Z,11.25
2024-03-02T05:42:35.119Z,11.30
2024-03-02T05:45:03.067Z,11.31
2024-03-02T05:47:31.505Z,11.33
2024-03-02T05:50:00.827Z,11.34
2024-03-02T05:52:28.961Z,11.22
2024-03-02T05:54:56.932Z,11.23
2024-03-02T05:57:39.973Z,11.27
2024-03-02T06:00:09.557Z,11.31
2024-03-02T06:02:41.495Z,11.28
2024-03-02T06:05:11.087Z,11.36
2024-03-02T06:07:38.962Z,11.43
2024-03-02T06:10:10.948Z,11.50
2024-03-02T06:12:40.676Z,11.49
2024-03-02T06:15:09.125Z,11.48
2024-03-02T06:17:37.446Z,11.50
2024-03-02T06:20:06.108Z,11.52
2024-03-02T06:22:35.373Z,11.53
2024-03-02T06:25:03.382Z,11.52
2024-03-02T06:27:31.478Z,11.56
2024-03-02T06:29:59.459Z,11.54
2024-03-02T06:32:27.501Z,11.47
2024-03-02T06:34:55.429Z,11.55
2024-03-02T06:37:23.286Z,11.48
2024-03-02T06:39:53.915Z,11.24
2024-03-02T06:42:21.879Z,11.24
2024-03-02T06:44:49.876Z,11.19
2024-03-02T06:47:18.911Z,11.14
2024-03-02T06:49:48.025Z,11.23
2024-03-02T06:52:15.946Z,11.27
2024-03-02T06:54:44.001Z,11.08
2024-03-02T06:57:17.427Z,10.91
2024-03-02T06:59:45.359Z,10.83
2024-03-02T07:02:13.650Z,10.76
2024-03-02T07:04:41.632Z,10.79
2024-03-02T07:07:09.555Z,10.92
2024-03-02T07:09:37.508Z,11.06
2024-03-02T07:12:05.858Z,11.18
2024-03-02T07:14:52.785Z,11.27
2024-03-02T07:17:20.670Z,11.35
2024-03-02T07:19:48.797Z,11.35
2024-03-02T07:22:16.875Z,11.32
2024-03-02T07:24:46.928Z,11.30
2024-03-02T07:27:18.564Z,11.09
2024-03-02T07:29:47.959Z,10.94
2024-03-02T07:32:16.070Z,10.93
2024-03-02T07:34:44.076Z,11.07
2024-03-02T07:37:12.159Z,11.15
2024-03-02T07:39:40.218Z,11.00
2024-03-02T07:42:08.403Z,11.06
2024-03-02T07:44:40.826Z,11.06
2024-03-02T07:47:11.295Z,11.12
2024-03-02T07:49:39.355Z,11.09
2024-03-02T07:52:07.302Z,11.08
2024-03-02T07:54:35.240Z,11.22
2024-03-02T07:57:03.374Z,11.30
2024-03-02T07:59:31.402Z,11.23
2024-03-02T08:01:59.474Z,11.17
2024-03-02T08:04:28.728Z,11.12
2024-03-02T08:06:56.953Z,10.92
2024-03-02T08:09:25.054Z,11.04
2024-03-02T08:11:53.033Z,11.14
2024-03-02T08:14:20.978Z,11.16
2024-03-02T08:16:48.990Z,11.13
2024-03-02T08:19:17.181Z,11.13
2024-03-02T08:21:46.767Z,11.15
2024-03-02T08:24:14.734Z,11.24
2024-03-02T08:26:43.129Z,11.35
2024-03-02T08:29:11.093Z,11.44
2024-03-02T08:31:41.250Z,11.36
2024-03-02T08:34:10.352Z,11.30
2024-03-02T08:36:39.227Z,11.38
2024-03-02T08:39:16.419Z,11.50
2024-03-02T08:41:46.134Z,11.49
2024-03-02T08:44:14.869Z,11.36
2024-03-02T08:46:43.063Z,11.25
2024-03-02T08:49:11.345Z,11.24
2024-03-02T08:51:39.289Z,11.24
2024-03-02T08:54:08.746Z,11.18
2024-03-02T08:56:37.723Z,11.20
2024-03-02T08:59:06.178Z,11.23
2024-03-02T09:01:35.352Z,11.29
2024-03-02T09:04:03.594Z,11.31
2024-03-02T09:06:31.668Z,11.41
2024-03-02T09:08:59.588Z,11.50
2024-03-02T09:11:29.078Z,11.45
2024-03-02T09:13:57.826Z,11.36
2024-03-02T09:16:31.700Z,11.30
2024-03-02T09:19:01.399Z,11.32
2024-03-02T09:21:31.077Z,11.38
2024-03-02T09:23:59.023Z,11.33
2024-03-02T09:26:28.479Z,11.43
2024-03-02T09:28:56.414Z,11.55
2024-03-02T09:31:24.354Z,11.64
2024-03-02T09:33:52.406Z,11.69
2024-03-02T09:36:21.007Z,11.81
2024-03-02T09:38:49.092Z,11.90
2024-03-02T09:41:17.644Z,11.90
2024-03-02T09:43:47.402Z,11.78
2024-03-02T09:46:15.456Z,11.74
2024-03-02T09:48:43.519Z,11.73
2024-03-02T09:51:12.435Z,11.74
2024-03-02T09:53:40.682Z,11.67
2024-03-02T09:56:08.652Z,11.58
2024-03-02T09:58:36.549Z,11.66
2024-03-02T10:01:08.003Z,11.65
2024-03-02T10:03:36.401Z,11.73
2024-03-02T10:06:24.273Z,11.83
2024-03-02T10:08:52.693Z,11.86
2024-03-02T10:11:32.015Z,11.86
2024-03-02T10:14:10.354Z,11.87
2024-03-02T10:16:40.701Z,11.96
2024-03-02T10:19:19.237Z,11.97
2024-03-02T10:21:47.802Z,12.02
2024-03-02T10:24:15.753Z,12.01
2024-03-02T10:26:44.237Z,12.00
2024-03-02T10:29:12.502Z,12.11
2024-03-02T10:31:43.230Z,12.17
2024-03-02T10:34:12.645Z,12.20
2024-03-02T10:36:43.865Z,12.29
2024-03-02T10:39:12.024Z,12.33
2024-03-02T10:41:41.335Z,12.38
2024-03-02T10:44:11.166Z,12.42
2024-03-02T10:46:41.176Z,12.40
2024-03-02T10:49:09.900Z,12.39
2024-03-02T10:51:39.019Z,12.40
2024-03-02T10:54:07.438Z,12.43
2024-03-02T10:56:40.729Z,12.39
2024-03-02T10:59:16.445Z,12.40
2024-03-02T11:01:49.206Z,12.42
2024-03-02T11:04:20.056Z,12.38
2024-03-02T11:06:51.155Z,12.39
2024-03-02T11:09:23.252Z,12.39
2024-03-02T11:12:03.723Z,12.36
2024-03-02T11:14:34.256Z,12.39
2024-03-02T11:17:06.437Z,12.41
2024-03-02T11:19:36.132Z,12.40
2024-03-02T11:22:05.305Z,12.41
2024-03-02T11:24:38.221Z,12.38
2024-03-02T11:27:08.801Z,12.38
2024-03-02T11:29:46.548Z,12.38
2024-03-02T11:32:22.351Z,12.39
2024-03-02T11:34:51.595Z,12.40
2024-03-02T11:37:21.376Z,12.43
2024-03-02T11:39:51.530Z,12.50
2024-03-02T11:42:19.728Z,12.51
2024-03-02T11:44:49.111Z,12.62
2024-03-02T11:47:19.842Z,12.68
2024-03-02T11:49:51.214Z,12.69
2024-03-02T11:52:20.577Z,12.66
2024-03-02T11:54:50.322Z,12.60
2024-03-02T11:57:20.463Z,12.61
2024-03-02T11:59:48.752Z,12.47
2024-03-02T12:02:18.791Z,12.53
2024-03-02T12:04:49.967Z,12.48
2024-03-02T12:07:21.348Z,12.45
2024-03-02T12:09:49.499Z,12.34
2024-03-02T12:12:19.920Z,12.52
2024-03-02T12:14:53.654Z,12.51
2024-03-02T12:17:21.613Z,12.48
2024-03-02T12:19:51.009Z,12.43
2024-03-02T12:22:19.278Z,12.41
2024-03-02T12:24:47.649Z,12.29
2024-03-02T12:27:17.468Z,12.35
2024-03-02T12:29:45.533Z,12.34
2024-03-02T12:32:13.639Z,12.17
2024-03-02T12:34:41.696Z,12.32
2024-03-02T12:37:14.579Z,12.35
2024-03-02T12:39:42.614Z,12.42
2024-03-02T12:42:11.700Z,12.43
2024-03-02T12:44:39.795Z,12.42
2024-03-02T12:47:08.871Z,12.40
2024-03-02T12:49:37.788Z,12.44
2024-03-02T12:52:06.548Z,12.52
2024-03-02T12:54:36.089Z,12.54
2024-03-02T12:57:04.533Z,12.51
2024-03-02T12:59:32.636Z,12.53
2024-03-02T13:02:00.702Z,12.52
2024-03-02T13:04:30.376Z,12.57
2024-03-02T13:06:59.187Z,12.62
2024-03-02T13:09:27.800Z,12.64
2024-03-02T13:11:58.030Z,12.61
2024-03-02T13:14:27.392Z,12.63
2024-03-02T13:16:55.372Z,12.71
2024-03-02T13:19:23.296Z,12.74
2024-03-02T13:21:52.524Z,12.77
2024-03-02T13:24:21.135Z,12.84
2024-03-02T13:26:49.133Z,12.90
2024-03-02T13:29:19.435Z,12.92
2024-03-02T13:31:47.951Z,12.95
2024-03-02T13:34:16.585Z,12.97
2024-03-02T13:36:44.603Z,12.94
2024-03-02T13:39:16.436Z,12.88
2024-03-02T13:41:52.920Z,12.82
2024-03-02T13:44:22.857Z,12.81
2024-03-02T13:46:50.827Z,12.79
2024-03-02T13:49:18.718Z,12.76
2024-03-02T13:51:46.939Z,12.78
2024-03-02T13:54:14.905Z,12.77
2024-03-02T13:56:43.010Z,12.74
2024-03-02T13:59:11.050Z,12.70
2024-03-02T14:01:40.424Z,12.65
2024-03-02T14:04:08.469Z,12.64
2024-03-02T14:06:36.534Z,12.62
2024-03-02T14:09:04.517Z,12.49
2024-03-02T14:11:32.509Z,12.59
2024-03-02T14:14:00.620Z,12.52
2024-03-02T14:16:28.536Z,12.49
2024-03-02T14:18:59.050Z,12.47
2024-03-02T14:21:27.344Z,12.35
2024-03-02T14:23:55.986Z,12.47
2024-03-02T14:26:24.099Z,12.47
2024-03-02T14:28:53.965Z,12.49
2024-03-02T14:31:23.217Z,12.51
2024-03-02T14:33:51.259Z,12.45
2024-03-02T14:36:20.849Z,12.41
2024-03-02T14:38:49.192Z,12.42
2024-03-02T14:41:17.126Z,12.43
2024-03-02T14:43:45.035Z,12.41
2024-03-02T14:46:14.038Z,12.37
2024-03-02T14:48:42.110Z,12.36
2024-03-02T14:51:11.671Z,12.34
2024-03-02T14:53:41.084Z,12.25
2024-03-02T14:56:09.088Z,12.35
2024-03-02T14:58:37.970Z,12.37
2024-03-02T15:01:07.385Z,12.38
2024-03-02T15:03:35.641Z,12.42
2024-03-02T15:06:05.318Z,12.43
2024-03-02T15:08:33.726Z,12.41
2024-03-02T15:11:05.119Z,12.42
2024-03-02T15:13:33.651Z,12.41
2024-03-02T15:16:01.634Z,12.43
2024-03-02T15:18:29.676Z,12.31
2024-03-02T15:20:57.706Z,12.41
2024-03-02T15:23:26.031Z,12.37
2024-03-02T15:25:54.009Z,12.40
2024-03-02T15:28:23.294Z,12.40
2024-03-02T15:30:53.283Z,12.32
2024-03-02T15:33:22.282Z,12.35
2024-03-02T15:35:50.218Z,12.33
2024-03-02T15:38:25.080Z,12.34
2024-03-02T15:41:00.730Z,12.33
2024-03-02T15:43:30.644Z,12.34
2024-03-02T15:45:59.139Z,12.31
2024-03-02T15:48:27.308Z,12.30
2024-03-02T15:50:56.583Z,12.28
2024-03-02T15:53:24.710Z,12.27
2024-03-02T15:55:53.085Z,12.28
2024-03-02T15:58:21.100Z,12.26
2024-03-02T16:00:50.506Z,12.17
2024-03-02T16:03:19.024Z,12.19
2024-03-02T16:05:46.927Z,12.18
2024-03-02T16:08:14.984Z,12.16
2024-03-02T16:10:42.876Z,12.11
2024-03-02T16:13:10.912Z,12.16
2024-03-02T16:15:39.112Z,12.12
2024-03-02T16:18:08.929Z,12.10
2024-03-02T16:20:37.014Z,12.09
2024-03-02T16:23:05.305Z,12.07
2024-03-02T16:25:33.157Z,12.07
2024-03-02T16:28:02.543Z,12.05
2024-03-02T16:30:30.748Z,12.02
2024-03-02T16:32:59.600Z,12.12
2024-03-02T16:35:28.841Z,12.12
2024-03-02T16:37:56.792Z,12.11
2024-03-02T16:40:24.830Z,12.04
2024-03-02T16:42:53.218Z,12.10
2024-03-02T16:45:21.169Z,12.10
2024-03-02T16:47:49.188Z,12.08
2024-03-02T16:50:17.793Z,12.07
2024-03-02T16:52:47.068Z,12.08
2024-03-02T16:55:15.819Z,12.06
2024-03-02T16:57:43.901Z,12.05
2024-03-02T17:00:13.113Z,12.08
2024-03-02T17:02:41.044Z,12.08
2024-03-02T17:05:09.812Z,12.07
2024-03-02T17:07:37.703Z,12.05
2024-03-02T17:10:08.264Z,12.05
2024-03-02T17:12:36.273Z,12.04
2024-03-02T17:15:05.516Z,12.02
2024-03-02T17:17:33.957Z,12.05
2024-03-02T17:20:02.618Z,12.04
2024-03-02T17:22:32.315Z,12.03
2024-03-02T17:25:00.284Z,11.98
2024-03-02T17:27:31.752Z,11.94
2024-03-02T17:29:59.920Z,11.92
2024-03-02T17:32:29.261Z,11.93
2024-03-02T17:34:57.445Z,11.88
2024-03-02T17:37:25.356Z,11.90
2024-03-02T17:39:54.389Z,11.93
2024-03-02T17:42:22.434Z,11.94
2024-03-02T17:44:54.768Z,11.96
2024-03-02T17:47:22.716Z,11.89
2024-03-02T17:49:50.699Z,11.98
2024-03-02T17:52:18.735Z,11.99
2024-03-02T17:54:46.804Z,11.97
2024-03-02T17:57:16.555Z,11.94
2024-03-02T17:59:44.848Z,11.95
2024-03-02T18:02:14.620Z,11.96
2024-03-02T18:04:43.148Z,11.96
2024-03-02T18:07:11.296Z,11.96
2024-03-02T18:09:39.398Z,11.97
2024-03-02T18:12:09.482Z,11.94
2024-03-02T18:14:40.409Z,11.78
2024-03-02T18:17:08.751Z,11.88
2024-03-02T18:19:38.133Z,11.87
2024-03-02T18:22:06.221Z,11.87
2024-03-02T18:24:37.545Z,11.83
2024-03-02T18:27:06.242Z,11.84
2024-03-02T18:29:34.096Z,11.85
2024-03-02T18:32:03.352Z,11.87
2024-03-02T18:34:31.477Z,11.85
2024-03-02T18:37:00.831Z,11.81
2024-03-02T18:39:28.786Z,11.79
2024-03-02T18:41:56.684Z,11.83
2024-03-02T18:44:25.487Z,11.74
2024-03-02T18:46:53.495Z,11.86
2024-03-02T18:49:21.787Z,11.89
2024-03-02T18:51:49.775Z,11.87
2024-03-02T18:54:19.354Z,11.79
2024-03-02T18:56:47.330Z,11.77
2024-03-02T18:59:15.301Z,11.75
2024-03-02T19:01:43.390Z,11.74
2024-03-02T19:04:11.397Z,11.78
2024-03-02T19:06:39.391Z,11.80
2024-03-02T19:09:07.292Z,11.79
2024-03-02T19:11:36.662Z,11.78
2024-03-02T19:14:04.594Z,11.79
2024-03-02T19:16:32.534Z,11.79
2024-03-02T19:19:00.456Z,11.76
2024-03-02T19:21:28.690Z,11.79
2024-03-02T19:23:56.655Z,11.82
2024-03-02T19:26:26.148Z,11.84
2024-03-02T19:28:55.497Z,11.83
2024-03-02T19:31:23.508Z,11.84
2024-03-02T19:33:51.436Z,11.88
2024-03-02T19:36:19.328Z,11.87
2024-03-02T19:38:47.272Z,11.83
2024-03-02T19:41:15.985Z,11.82
2024-03-02T19:43:43.931Z,11.80
2024-03-02T19:46:13.807Z,11.80
2024-03-02T19:48:41.885Z,11.83
2024-03-02T19:51:11.309Z,11.74
2024-03-02T19:53:42.606Z,11.82
2024-03-02T19:56:10.839Z,11.78
2024-03-02T19:58:38.702Z,11.83
2024-03-02T20:01:06.773Z,11.82
2024-03-02T20:03:36.174Z,11.82
2024-03-02T20:06:04.158Z,11.83
2024-03-02T20:08:32.707Z,11.83
2024-03-02T20:11:00.698Z,11.75
2024-03-02T20:13:28.630Z,11.80
2024-03-02T20:15:57.759Z,11.79
2024-03-02T20:18:25.765Z,11.77
2024-03-02T20:20:55.060Z,11.76
2024-03-02T20:23:23.158Z,11.73
2024-03-02T20:25:51.063Z,11.78
2024-03-02T20:28:19.220Z,11.64
2024-03-02T20:30:47.310Z,11.79
2024-03-02T20:33:15.543Z,11.80
2024-03-02T20:35:43.511Z,11.81
2024-03-02T20:38:12.853Z,11.80
2024-03-02T20:40:43.264Z,11.72
2024-03-02T20:43:12.158Z,11.73
2024-03-02T20:45:40.433Z,11.73
2024-03-02T20:48:09.349Z,11.73
2024-03-02T20:50:37.271Z,11.69
2024-03-02T20:53:08.060Z,11.65
2024-03-02T20:55:38.906Z,11.63
2024-03-02T20:58:08.110Z,11.66
2024-03-02T21:00:36.423Z,11.66
2024-03-02T21:03:04.465Z,11.67
2024-03-02T21:05:32.687Z,11.68
2024-03-02T21:08:02.124Z,11.68
2024-03-02T21:10:30.122Z,11.69
2024-03-02T21:13:00.929Z,11.69
2024-03-02T21:15:29.011Z,11.70
2024-03-02T21:17:57.075Z,11.71
2024-03-02T21:20:25.087Z,11.67
2024-03-02T21:22:53.049Z,11.71
2024-03-02T21:25:22.571Z,11.73
2024-03-02T21:27:50.675Z,11.71
2024-03-02T21:30:20.188Z,11.73
2024-03-02T21:32:49.669Z,11.72
2024-03-02T21:35:17.768Z,11.68
2024-03-02T21:37:45.687Z,11.68
2024-03-02T21:40:15.927Z,11.56
2024-03-02T21:42:43.895Z,11.62
2024-03-02T21:45:11.845Z,11.68
2024-03-02T21:47:41.202Z,11.70
2024-03-02T21:50:10.570Z,11.71
2024-03-02T21:52:38.482Z,11.69
2024-03-02T21:55:07.419Z,11.69
2024-03-02T21:57:35.572Z,11.69
2024-03-02T22:00:04.025Z,11.62
2024-03-02T22:02:42.097Z,11.63
2024-03-02T22:05:10.438Z,11.60
2024-03-02T22:07:38.511Z,11.58
2024-03-02T22:10:07.553Z,11.58
2024-03-02T22:12:35.581Z,11.56
2024-03-02T22:15:04.154Z,11.53
2024-03-02T22:17:32.353Z,11.51
2024-03-02T22:20:02.686Z,11.46
2024-03-02T22:22:30.826Z,11.48
2024-03-02T22:24:59.329Z,11.50
2024-03-02T22:27:27.716Z,11.49
2024-03-02T22:29:55.573Z,11.49
2024-03-02T22:32:23.496Z,11.47
2024-03-02T22:34:51.400Z,11.47
2024-03-02T22:37:20.736Z,11.50
2024-03-02T22:39:48.709Z,11.50
2024-03-02T22:42:16.637Z,11.50
2024-03-02T22:44:44.479Z,11.49
2024-03-02T22:47:12.995Z,11.44
2024-03-02T22:49:41.338Z,11.43
2024-03-02T22:52:09.383Z,11.31
2024-03-02T22:54:38.687Z,11.35
2024-03-02T22:57:07.113Z,11.37
2024-03-02T22:59:35.726Z,11.37
2024-03-02T23:02:03.807Z,11.36
2024-03-02T23:04:31.834Z,11.38
2024-03-02T23:06:59.745Z,11.38
2024-03-02T23:09:29.293Z,11.36
2024-03-02T23:11:58.513Z,11.35
2024-03-02T23:14:26.402Z,11.30
2024-03-02T23:16:54.281Z,11.31
2024-03-02T23:19:23.385Z,11.32
2024-03-02T23:21:51.867Z,11.33
2024-03-02T23:24:20.385Z,11.27
2024-03-02T23:26:48.392Z,11.18
2024-03-02T23:29:20.009Z,11.14
2024-03-02T23:31:48.013Z,11.10
2024-03-02T23:34:15.924Z,11.03
2024-03-02T23:36:43.938Z,11.11
2024-03-02T23:39:12.299Z,10.85
2024-03-02T23:41:39.251Z,11.20
2024-03-02T23:44:08.789Z,11.22
2024-03-02T23:46:38.230Z,11.30
2024-03-02T23:49:06.133Z,11.29
2024-03-02T23:51:34.122Z,11.31
2024-03-02T23:54:02.072Z,11.31
2024-03-02T23:56:31.822Z,11.33
2024-03-02T23:59:01.185Z,11.30
